createdAt,value
2023-02-18T00:00:06.836Z,9.10
2023-02-18T00:02:33.855Z,9.10
2023-02-18T00:05:00.358Z,9.10
2023-02-18T00:07:26.875Z,9.10
2023-02-18T00:09:53.365Z,9.20
2023-02-18T00:12:19.885Z,9.20
2023-02-18T00:14:46.388Z,9.20
2023-02-18T00:17:12.887Z,9.20
2023-02-18T00:19:39.382Z,9.20
2023-02-18T00:22:05.919Z,9.20
2023-02-18T00:24:32.539Z,9.20
2023-02-18T00:26:59.056Z,9.20
2023-02-18T00:29:25.727Z,9.20
2023-02-18T00:31:52.281Z,9.20
2023-02-18T00:34:18.883Z,9.30
2023-02-18T00:36:45.401Z,9.20
2023-02-18T00:39:11.877Z,9.20
2023-02-18T00:41:38.434Z,9.20
2023-02-18T00:44:04.983Z,9.30
2023-02-18T00:46:31.576Z,9.20
2023-02-18T00:48:58.110Z,9.30
2023-02-18T00:51:25.354Z,9.30
2023-02-18T00:53:51.868Z,9.20
2023-02-18T00:56:18.380Z,9.20
2023-02-18T00:58:44.989Z,9.20
2023-02-18T01:01:11.501Z,9.20
2023-02-18T01:03:38.016Z,9.20
2023-02-18T01:06:04.505Z,9.20
2023-02-18T01:08:30.995Z,9.20
2023-02-18T01:10:57.514Z,9.20
2023-02-18T01:13:24.057Z,9.20
2023-02-18T01:15:50.730Z,9.10
2023-02-18T01:18:17.344Z,9.20
2023-02-18T01:20:43.922Z,9.20
2023-02-18T01:23:10.438Z,9.10
2023-02-18T01:25:36.918Z,9.10
2023-02-18T01:28:03.443Z,9.10
2023-02-18T01:30:29.972Z,9.10
2023-02-18T01:32:56.479Z,9.20
2023-02-18T01:35:24.052Z,9.10
2023-02-18T01:37:50.554Z,9.10
2023-02-18T01:40:17.050Z,9.10
2023-02-18T01:42:43.542Z,9.10
2023-02-18T01:45:10.021Z,9.10
2023-02-18T01:47:36.554Z,9.10
2023-02-18T01:50:03.030Z,9.10
2023-02-18T01:52:32.343Z,9.10
2023-02-18T01:54:58.831Z,9.10
2023-02-18T01:57:25.414Z,9.10
2023-02-18T01:59:51.926Z,9.10
2023-02-18T02:02:18.443Z,9.10
2023-02-18T02:04:44.929Z,9.10
2023-02-18T02:07:11.449Z,9.10
2023-02-18T02:09:37.954Z,9.10
2023-02-18T02:12:04.492Z,9.10
2023-02-18T02:14:30.999Z,9.10
2023-02-18T02:16:57.501Z,9.10
2023-02-18T02:19:23.987Z,9.10
2023-02-18T02:21:50.467Z,9.20
2023-02-18T02:24:16.990Z,9.10
2023-02-18T02:26:43.582Z,9.20
2023-02-18T02:29:10.070Z,9.20
2023-02-18T02:31:36.571Z,9.10
2023-02-18T02:34:03.044Z,9.10
2023-02-18T02:36:29.556Z,9.10
2023-02-18T02:38:56.078Z,9.10
2023-02-18T02:41:22.571Z,9.10
2023-02-18T02:43:49.223Z,9.10
2023-02-18T02:46:15.702Z,9.10
2023-02-18T02:48:42.217Z,9.10
2023-02-18T02:51:08.709Z,9.10
2023-02-18T02:53:35.330Z,9.00
2023-02-18T02:56:01.937Z,9.00
2023-02-18T02:58:28.475Z,9.00
2023-02-18T03:00:55.018Z,9.10
2023-02-18T03:03:21.666Z,9.00
2023-02-18T03:05:48.153Z,9.00
2023-02-18T03:08:14.801Z,9.00
2023-02-18T03:10:41.289Z,9.00
2023-02-18T03:13:07.812Z,9.00
2023-02-18T03:15:34.293Z,9.00
2023-02-18T03:18:00.758Z,9.00
2023-02-18T03:20:27.601Z,9.00
2023-02-18T03:22:54.141Z,9.00
2023-02-18T03:25:20.659Z,9.00
2023-02-18T03:27:47.142Z,9.00
2023-02-18T03:30:13.852Z,9.00
2023-02-18T03:32:40.363Z,9.00
2023-02-18T03:35:06.849Z,9.00
2023-02-18T03:37:33.387Z,9.00
2023-02-18T03:39:59.864Z,9.00
2023-02-18T03:42:26.518Z,9.00
2023-02-18T03:44:52.987Z,9.00
2023-02-18T03:47:19.496Z,9.00
2023-02-18T03:49:46.027Z,9.10
2023-02-18T03:52:12.530Z,9.10
2023-02-18T03:54:39.022Z,9.10
2023-02-18T03:57:05.537Z,9.10
2023-02-18T03:59:32.014Z,9.10
2023-02-18T04:01:58.554Z,9.10
2023-02-18T04:04:25.061Z,9.10
2023-02-18T04:06:51.603Z,9.10
2023-02-18T04:09:18.097Z,9.10
2023-02-18T04:11:44.590Z,9.20
2023-02-18T04:14:11.108Z,9.10
2023-02-18T04:16:38.732Z,9.10
2023-02-18T04:19:05.242Z,9.10
2023-02-18T04:21:31.880Z,9.10
2023-02-18T04:23:58.348Z,9.20
2023-02-18T04:26:25.132Z,9.20
2023-02-18T04:28:51.890Z,9.20
2023-02-18T04:31:18.514Z,9.20
2023-02-18T04:33:45.325Z,9.20
2023-02-18T04:36:11.870Z,9.20
2023-02-18T04:38:38.424Z,9.20
2023-02-18T04:41:04.957Z,9.20
2023-02-18T04:43:31.438Z,9.30
2023-02-18T04:45:57.972Z,9.20
2023-02-18T04:48:24.550Z,9.30
2023-02-18T04:50:51.068Z,9.30
2023-02-18T04:53:17.525Z,9.30
2023-02-18T04:55:44.043Z,9.30
2023-02-18T04:58:10.740Z,9.30
2023-02-18T05:00:37.256Z,9.30
2023-02-18T05:03:03.778Z,9.40
2023-02-18T05:05:30.269Z,9.40
2023-02-18T05:07:56.759Z,9.40
2023-02-18T05:10:23.230Z,9.40
2023-02-18T05:12:49.800Z,9.40
2023-02-18T05:15:16.306Z,9.40
2023-02-18T05:17:42.829Z,9.40
2023-02-18T05:20:10.043Z,9.40
2023-02-18T05:22:36.634Z,9.30
2023-02-18T05:25:03.189Z,9.30
2023-02-18T05:27:29.711Z,9.30
2023-02-18T05:29:56.330Z,9.20
2023-02-18T05:32:22.864Z,9.20
2023-02-18T05:34:49.356Z,9.20
2023-02-18T05:37:16.915Z,9.10
2023-02-18T05:39:43.435Z,9.10
2023-02-18T05:42:09.930Z,9.10
2023-02-18T05:44:36.416Z,9.10
2023-02-18T05:47:02.904Z,9.10
2023-02-18T05:49:29.503Z,9.10
2023-02-18T05:51:56.021Z,9.10
2023-02-18T05:54:22.506Z,9.10
2023-02-18T05:56:48.990Z,9.00
2023-02-18T05:59:15.520Z,9.00
2023-02-18T06:01:42.191Z,9.00
2023-02-18T06:04:08.726Z,9.00
2023-02-18T06:06:35.217Z,9.00
2023-02-18T06:09:01.696Z,9.00
2023-02-18T06:11:28.185Z,9.00
2023-02-18T06:13:54.691Z,9.00
2023-02-18T06:16:21.309Z,9.00
2023-02-18T06:18:47.814Z,9.00
2023-02-18T06:21:14.448Z,9.00
2023-02-18T06:23:40.980Z,9.00
2023-02-18T06:26:07.852Z,9.00
2023-02-18T06:28:34.680Z,9.00
2023-02-18T06:31:01.267Z,9.00
2023-02-18T06:33:27.848Z,9.00
2023-02-18T06:35:54.362Z,9.00
2023-02-18T06:38:21.073Z,9.00
2023-02-18T06:40:47.587Z,9.00
2023-02-18T06:43:14.131Z,9.00
2023-02-18T06:45:40.597Z,9.00
2023-02-18T06:48:07.082Z,9.00
2023-02-18T06:50:33.600Z,9.00
2023-02-18T06:53:00.256Z,9.00
2023-02-18T06:55:26.750Z,9.00
2023-02-18T06:57:53.270Z,9.00
2023-02-18T07:00:19.962Z,9.10
2023-02-18T07:02:46.476Z,9.10
2023-02-18T07:05:12.995Z,9.10
2023-02-18T07:07:39.501Z,9.10
2023-02-18T07:10:06.236Z,9.10
2023-02-18T07:12:32.726Z,9.20
2023-02-18T07:14:59.252Z,9.20
2023-02-18T07:17:25.773Z,9.20
2023-02-18T07:19:52.256Z,9.20
2023-02-18T07:22:18.804Z,9.20
2023-02-18T07:24:45.294Z,9.20
2023-02-18T07:27:11.773Z,9.10
2023-02-18T07:29:38.282Z,9.20
2023-02-18T07:32:04.811Z,9.10
2023-02-18T07:34:31.371Z,9.10
2023-02-18T07:36:57.877Z,9.10
2023-02-18T07:39:24.415Z,9.10
2023-02-18T07:41:51.131Z,9.10
2023-02-18T07:44:17.632Z,9.10
2023-02-18T07:46:45.246Z,9.10
2023-02-18T07:49:12.571Z,9.00
2023-02-18T07:51:40.258Z,9.00
2023-02-18T07:54:06.807Z,9.00
2023-02-18T07:56:33.278Z,9.00
2023-02-18T07:58:59.843Z,8.90
2023-02-18T08:01:26.335Z,8.90
2023-02-18T08:03:52.839Z,8.90
2023-02-18T08:06:19.333Z,8.80
2023-02-18T08:08:45.846Z,8.80
2023-02-18T08:11:19.021Z,8.80
2023-02-18T08:13:47.181Z,8.80
2023-02-18T08:16:13.938Z,8.80
2023-02-18T08:18:40.500Z,8.80
2023-02-18T08:21:06.974Z,8.70
2023-02-18T08:23:33.538Z,8.70
2023-02-18T08:26:00.041Z,8.70
2023-02-18T08:28:26.735Z,8.70
2023-02-18T08:30:53.316Z,8.60
2023-02-18T08:33:19.863Z,8.60
2023-02-18T08:35:46.355Z,8.60
2023-02-18T08:38:12.950Z,8.60
2023-02-18T08:40:40.822Z,8.60
2023-02-18T08:43:07.427Z,8.60
2023-02-18T08:45:35.978Z,8.60
2023-02-18T08:48:16.594Z,8.60
2023-02-18T08:50:46.693Z,8.60
2023-02-18T08:53:13.230Z,8.60
2023-02-18T08:55:39.714Z,8.70
2023-02-18T08:58:06.755Z,8.80
2023-02-18T09:00:33.292Z,8.80
2023-02-18T09:02:59.962Z,8.90
2023-02-18T09:05:26.454Z,8.90
2023-02-18T09:07:52.923Z,8.90
2023-02-18T09:10:19.421Z,8.90
2023-02-18T09:12:45.898Z,8.90
2023-02-18T09:15:12.578Z,8.90
2023-02-18T09:17:39.129Z,8.80
2023-02-18T09:20:05.625Z,8.80
2023-02-18T09:22:32.768Z,8.80
2023-02-18T09:24:59.268Z,8.70
2023-02-18T09:27:25.894Z,8.60
2023-02-18T09:29:52.448Z,8.60
2023-02-18T09:32:32.439Z,8.60
2023-02-18T09:35:00.438Z,8.60
2023-02-18T09:37:26.964Z,8.60
2023-02-18T09:39:53.564Z,8.70
2023-02-18T09:42:20.052Z,8.70
2023-02-18T09:44:46.555Z,8.70
2023-02-18T09:47:13.022Z,8.70
2023-02-18T09:49:39.524Z,8.70
2023-02-18T09:52:06.104Z,8.60
2023-02-18T09:54:32.610Z,8.60
2023-02-18T09:56:59.109Z,8.60
2023-02-18T09:59:25.600Z,8.60
2023-02-18T10:02:02.346Z,8.60
2023-02-18T10:04:31.168Z,8.50
2023-02-18T10:06:58.220Z,8.50
2023-02-18T10:09:28.066Z,8.50
2023-02-18T10:11:55.356Z,8.50
2023-02-18T10:14:25.046Z,8.50
2023-02-18T10:16:51.578Z,8.50
2023-02-18T10:19:18.068Z,8.40
2023-02-18T10:21:44.558Z,8.40
2023-02-18T10:24:11.074Z,8.40
2023-02-18T10:26:37.573Z,8.40
2023-02-18T10:29:04.093Z,8.30
2023-02-18T10:31:30.745Z,8.30
2023-02-18T10:33:58.203Z,8.30
2023-02-18T10:36:25.697Z,8.30
2023-02-18T10:38:52.167Z,8.30
2023-02-18T10:41:18.658Z,8.20
2023-02-18T10:43:45.137Z,8.20
2023-02-18T10:46:13.490Z,8.20
2023-02-18T10:48:40.261Z,8.20
2023-02-18T10:51:07.155Z,8.20
2023-02-18T10:53:34.098Z,8.20
2023-02-18T10:56:00.629Z,8.20
2023-02-18T10:58:27.277Z,8.20
2023-02-18T11:00:53.838Z,8.20
2023-02-18T11:03:20.363Z,8.10
2023-02-18T11:05:47.077Z,8.20
2023-02-18T11:08:13.594Z,8.20
2023-02-18T11:10:40.162Z,8.20
2023-02-18T11:13:06.694Z,8.30
2023-02-18T11:15:33.175Z,8.30
2023-02-18T11:17:59.964Z,8.30
2023-02-18T11:20:26.516Z,8.30
2023-02-18T11:22:53.148Z,8.20
2023-02-18T11:25:19.646Z,8.20
2023-02-18T11:27:46.141Z,8.30
2023-02-18T11:30:12.676Z,8.20
2023-02-18T11:32:39.281Z,8.20
2023-02-18T11:35:05.802Z,8.30
2023-02-18T11:37:32.316Z,8.30
2023-02-18T11:39:58.844Z,8.30
2023-02-18T11:42:26.146Z,8.30
2023-02-18T11:44:52.831Z,8.30
2023-02-18T11:47:22.432Z,8.30
2023-02-18T11:49:48.929Z,8.30
2023-02-18T11:52:15.545Z,8.30
2023-02-18T11:54:42.138Z,8.30
2023-02-18T11:57:08.661Z,8.30
2023-02-18T11:59:35.166Z,8.30
2023-02-18T12:02:01.657Z,8.30
2023-02-18T12:04:28.257Z,8.30
2023-02-18T12:06:54.755Z,8.30
2023-02-18T12:09:21.445Z,8.30
2023-02-18T12:11:47.951Z,8.30
2023-02-18T12:14:14.514Z,8.30
2023-02-18T12:16:41.196Z,8.30
2023-02-18T12:19:07.933Z,8.30
2023-02-18T12:21:34.396Z,8.30
2023-02-18T12:24:00.877Z,8.30
2023-02-18T12:26:27.510Z,8.40
2023-02-18T12:28:53.981Z,8.40
2023-02-18T12:31:20.608Z,8.40
2023-02-18T12:33:47.155Z,8.40
2023-02-18T12:36:13.727Z,8.40
2023-02-18T12:38:40.217Z,8.40
2023-02-18T12:41:06.969Z,8.40
2023-02-18T12:43:33.527Z,8.40
2023-02-18T12:46:00.178Z,8.40
2023-02-18T12:48:26.681Z,8.40
2023-02-18T12:50:53.182Z,8.40
2023-02-18T12:53:19.694Z,8.50
2023-02-18T12:55:46.157Z,8.50
2023-02-18T12:58:12.678Z,8.40
2023-02-18T13:00:39.170Z,8.40
2023-02-18T13:03:05.676Z,8.40
2023-02-18T13:05:32.215Z,8.40
2023-02-18T13:07:58.765Z,8.40
2023-02-18T13:10:25.297Z,8.40
2023-02-18T13:12:51.820Z,8.40
2023-02-18T13:15:18.292Z,8.40
2023-02-18T13:17:44.823Z,8.40
2023-02-18T13:20:11.297Z,8.40
2023-02-18T13:22:37.788Z,8.40
2023-02-18T13:25:04.296Z,8.40
2023-02-18T13:27:30.784Z,8.40
2023-02-18T13:29:57.421Z,8.40
2023-02-18T13:32:23.995Z,8.40
2023-02-18T13:34:50.554Z,8.40
2023-02-18T13:37:17.046Z,8.40
2023-02-18T13:39:43.532Z,8.40
2023-02-18T13:42:10.066Z,8.40
2023-02-18T13:44:36.542Z,8.40
2023-02-18T13:47:03.024Z,8.40
2023-02-18T13:49:29.542Z,8.40
2023-02-18T13:51:56.048Z,8.40
2023-02-18T13:54:22.572Z,8.40
2023-02-18T13:56:50.829Z,8.30
2023-02-18T13:59:17.300Z,8.30
2023-02-18T14:01:43.813Z,8.40
2023-02-18T14:04:10.290Z,8.40
2023-02-18T14:06:39.008Z,8.40
2023-02-18T14:09:05.625Z,8.40
2023-02-18T14:11:32.137Z,8.50
2023-02-18T14:13:58.645Z,8.50
2023-02-18T14:16:25.133Z,8.50
2023-02-18T14:18:51.632Z,8.60
2023-02-18T14:21:18.119Z,8.60
2023-02-18T14:23:45.063Z,8.60
2023-02-18T14:26:11.562Z,8.60
2023-02-18T14:28:38.161Z,8.60
2023-02-18T14:31:04.795Z,8.60
2023-02-18T14:33:31.305Z,8.50
2023-02-18T14:35:57.820Z,8.50
2023-02-18T14:38:24.303Z,8.50
2023-02-18T14:40:50.782Z,8.50
2023-02-18T14:43:17.300Z,8.50
2023-02-18T14:45:43.801Z,8.50
2023-02-18T14:48:11.247Z,8.50
2023-02-18T14:50:39.204Z,8.60
2023-02-18T14:53:05.706Z,8.60
2023-02-18T14:55:32.255Z,8.60
2023-02-18T14:57:58.846Z,8.60
2023-02-18T15:00:25.476Z,8.60
2023-02-18T15:02:52.040Z,8.60
2023-02-18T15:05:18.680Z,8.60
2023-02-18T15:07:45.234Z,8.60
2023-02-18T15:10:11.708Z,8.60
2023-02-18T15:12:38.326Z,8.60
2023-02-18T15:15:05.010Z,8.60
2023-02-18T15:17:31.938Z,8.60
2023-02-18T15:19:58.479Z,8.60
2023-02-18T15:22:25.008Z,8.60
2023-02-18T15:24:51.547Z,8.60
2023-02-18T15:27:18.039Z,8.60
2023-02-18T15:29:44.516Z,8.60
2023-02-18T15:32:11.290Z,8.60
2023-02-18T15:34:37.963Z,8.60
2023-02-18T15:37:04.540Z,8.60
2023-02-18T15:39:32.605Z,8.60
2023-02-18T15:41:59.663Z,8.60
2023-02-18T15:44:26.207Z,8.60
2023-02-18T15:46:52.700Z,8.60
2023-02-18T15:49:19.182Z,8.60
2023-02-18T15:51:45.655Z,8.70
2023-02-18T15:54:12.157Z,8.70
2023-02-18T15:56:38.674Z,8.70
2023-02-18T15:59:05.182Z,8.70
2023-02-18T16:01:31.671Z,8.60
2023-02-18T16:03:58.221Z,8.60
2023-02-18T16:06:24.696Z,8.60
2023-02-18T16:08:51.396Z,8.70
2023-02-18T16:11:17.852Z,8.70
2023-02-18T16:13:44.319Z,8.70
2023-02-18T16:16:11.191Z,8.60
2023-02-18T16:18:37.936Z,8.60
2023-02-18T16:21:04.481Z,8.70
2023-02-18T16:23:31.262Z,8.70
2023-02-18T16:25:57.742Z,8.70
2023-02-18T16:28:24.289Z,8.70
2023-02-18T16:30:50.842Z,8.70
2023-02-18T16:33:17.323Z,8.60
2023-02-18T16:35:49.973Z,8.60
2023-02-18T16:38:17.311Z,8.60
2023-02-18T16:40:43.911Z,8.60
2023-02-18T16:43:10.421Z,8.60
2023-02-18T16:45:36.944Z,8.60
2023-02-18T16:48:03.643Z,8.60
2023-02-18T16:50:30.918Z,8.70
2023-02-18T16:52:57.493Z,8.70
2023-02-18T16:55:23.963Z,8.70
2023-02-18T16:57:50.446Z,8.70
2023-02-18T17:00:17.087Z,8.70
2023-02-18T17:02:43.634Z,8.70
2023-02-18T17:05:25.505Z,8.70
2023-02-18T17:07:52.783Z,8.70
2023-02-18T17:10:19.382Z,8.60
2023-02-18T17:12:45.873Z,8.60
2023-02-18T17:15:12.380Z,8.60
2023-02-18T17:17:38.870Z,8.60
2023-02-18T17:20:05.354Z,8.60
2023-02-18T17:22:31.879Z,8.60
2023-02-18T17:24:58.407Z,8.70
2023-02-18T17:27:24.879Z,8.70
2023-02-18T17:29:51.372Z,8.70
2023-02-18T17:32:18.451Z,8.70
2023-02-18T17:34:45.015Z,8.70
2023-02-18T17:37:11.510Z,8.70
2023-02-18T17:39:38.011Z,8.70
2023-02-18T17:42:04.520Z,8.70
2023-02-18T17:44:31.208Z,8.70
2023-02-18T17:46:57.762Z,8.70
2023-02-18T17:49:24.324Z,8.70
2023-02-18T17:51:51.949Z,8.60
2023-02-18T17:54:18.480Z,8.60
2023-02-18T17:56:45.042Z,8.70
2023-02-18T17:59:11.594Z,8.70
2023-02-18T18:01:38.366Z,8.70
2023-02-18T18:04:05.168Z,8.70
2023-02-18T18:06:35.886Z,8.70
2023-02-18T18:09:02.390Z,8.70
2023-02-18T18:11:28.989Z,8.70
2023-02-18T18:13:55.534Z,8.70
2023-02-18T18:16:22.140Z,8.70
2023-02-18T18:18:48.706Z,8.70
2023-02-18T18:21:16.184Z,8.70
2023-02-18T18:23:42.729Z,8.80
2023-02-18T18:26:09.199Z,8.70
2023-02-18T18:28:37.600Z,8.70
2023-02-18T18:31:04.323Z,8.80
2023-02-18T18:33:30.851Z,8.80
2023-02-18T18:35:57.390Z,8.80
2023-02-18T18:38:23.900Z,8.80
2023-02-18T18:40:50.442Z,8.80
2023-02-18T18:43:16.979Z,8.80
2023-02-18T18:45:43.475Z,8.80
2023-02-18T18:48:09.990Z,8.80
2023-02-18T18:50:41.768Z,8.80
2023-02-18T18:53:08.257Z,8.80
2023-02-18T18:55:34.751Z,8.80
2023-02-18T18:58:01.260Z,8.80
2023-02-18T19:00:27.813Z,8.70
2023-02-18T19:02:54.416Z,8.80
2023-02-18T19:05:20.967Z,8.70
2023-02-18T19:07:47.469Z,8.70
2023-02-18T19:10:14.044Z,8.70
2023-02-18T19:12:40.562Z,8.70
2023-02-18T19:15:07.067Z,8.70
2023-02-18T19:17:33.567Z,8.70
2023-02-18T19:20:00.241Z,8.70
2023-02-18T19:22:26.727Z,8.70
2023-02-18T19:24:53.282Z,8.70
2023-02-18T19:27:19.784Z,8.70
2023-02-18T19:29:49.785Z,8.70
2023-02-18T19:32:16.302Z,8.70
2023-02-18T19:34:42.770Z,8.70
2023-02-18T19:37:09.309Z,8.70
2023-02-18T19:39:35.878Z,8.70
2023-02-18T19:42:02.352Z,8.70
2023-02-18T19:44:28.834Z,8.70
2023-02-18T19:46:55.336Z,8.70
2023-02-18T19:49:21.841Z,8.70
2023-02-18T19:51:48.339Z,8.70
2023-02-18T19:54:15.312Z,8.70
2023-02-18T19:56:41.786Z,8.70
2023-02-18T19:59:08.267Z,8.70
2023-02-18T20:01:34.863Z,8.80
2023-02-18T20:04:01.373Z,8.80
2023-02-18T20:06:27.889Z,8.80
2023-02-18T20:08:55.247Z,8.80
2023-02-18T20:11:21.872Z,8.80
2023-02-18T20:13:48.464Z,8.80
2023-02-18T20:16:14.985Z,8.80
2023-02-18T20:18:41.493Z,8.80
2023-02-18T20:21:08.371Z,8.80
2023-02-18T20:23:35.062Z,8.80
2023-02-18T20:26:04.023Z,8.80
2023-02-18T20:28:30.497Z,8.80
2023-02-18T20:30:56.995Z,8.80
2023-02-18T20:33:23.492Z,8.80
2023-02-18T20:35:49.998Z,8.80
2023-02-18T20:38:18.568Z,8.80
2023-02-18T20:40:45.266Z,8.80
2023-02-18T20:43:11.750Z,8.80
2023-02-18T20:45:38.254Z,8.80
2023-02-18T20:48:04.823Z,8.80
2023-02-18T20:50:31.366Z,8.80
2023-02-18T20:52:57.854Z,8.80
2023-02-18T20:55:24.912Z,8.80
2023-02-18T20:57:51.382Z,8.80
2023-02-18T21:00:17.933Z,8.80
2023-02-18T21:02:44.511Z,8.70
2023-02-18T21:05:11.029Z,8.80
2023-02-18T21:07:37.607Z,8.70
2023-02-18T21:10:04.328Z,8.70
2023-02-18T21:12:31.100Z,8.70
2023-02-18T21:14:57.624Z,8.70
2023-02-18T21:17:24.161Z,8.70
2023-02-18T21:19:50.845Z,8.70
2023-02-18T21:22:17.409Z,8.80
2023-02-18T21:24:44.184Z,8.70
2023-02-18T21:27:10.746Z,8.70
2023-02-18T21:29:37.266Z,8.80
2023-02-18T21:32:03.875Z,8.80
2023-02-18T21:34:30.430Z,8.80
2023-02-18T21:36:56.960Z,8.80
2023-02-18T21:39:23.570Z,8.80
2023-02-18T21:41:50.216Z,8.80
2023-02-18T21:44:16.769Z,8.70
2023-02-18T21:46:43.373Z,8.70
2023-02-18T21:49:10.030Z,8.70
2023-02-18T21:51:55.478Z,8.70
2023-02-18T21:54:22.001Z,8.70
2023-02-18T21:56:48.602Z,8.70
2023-02-18T21:59:15.142Z,8.70
2023-02-18T22:01:41.764Z,8.70
2023-02-18T22:04:08.321Z,8.70
2023-02-18T22:06:34.828Z,8.70
2023-02-18T22:09:01.785Z,8.80
2023-02-18T22:11:28.322Z,8.80
2023-02-18T22:13:54.958Z,8.80
2023-02-18T22:16:21.578Z,8.80
2023-02-18T22:18:48.147Z,8.80
2023-02-18T22:21:14.759Z,8.80
2023-02-18T22:23:41.280Z,8.70
2023-02-18T22:26:07.856Z,8.70
2023-02-18T22:28:34.400Z,8.70
2023-02-18T22:31:00.973Z,8.70
2023-02-18T22:33:27.576Z,8.70
2023-02-18T22:35:54.295Z,8.70
2023-02-18T22:38:21.015Z,8.70
2023-02-18T22:40:49.807Z,8.70
2023-02-18T22:43:17.299Z,8.70
2023-02-18T22:45:43.804Z,8.70
2023-02-18T22:48:10.354Z,8.70
2023-02-18T22:50:36.897Z,8.60
2023-02-18T22:53:03.416Z,8.60
2023-02-18T22:55:29.923Z,8.60
2023-02-18T22:57:56.456Z,8.60
2023-02-18T23:00:23.000Z,8.60
2023-02-18T23:02:49.680Z,8.60
2023-02-18T23:05:16.192Z,8.70
2023-02-18T23:07:42.685Z,8.60
2023-02-18T23:10:09.221Z,8.60
2023-02-18T23:12:35.773Z,8.60
2023-02-18T23:15:02.379Z,8.70
2023-02-18T23:17:28.906Z,8.70
2023-02-18T23:19:55.457Z,8.70
2023-02-18T23:22:22.082Z,8.70
2023-02-18T23:24:49.485Z,8.70
2023-02-18T23:27:16.130Z,8.70
2023-02-18T23:29:42.731Z,8.70
2023-02-18T23:32:09.250Z,8.70
2023-02-18T23:34:36.143Z,8.70
2023-02-18T23:37:02.646Z,8.70
2023-02-18T23:39:29.555Z,8.70
2023-02-18T23:41:56.228Z,8.70
2023-02-18T23:44:22.806Z,8.70
2023-02-18T23:46:49.326Z,8.70
2023-02-18T23:49:15.973Z,8.70
2023-02-18T23:51:42.540Z,8.70
2023-02-18T23:54:09.081Z,8.70
2023-02-18T23:56:35.571Z,8.70
2023-02-18T23:59:02.152Z,8.70
